sensor_id;sensor_type;location;lat;lon;timestamp;P1;durP1;ratioP1;P2;durP2;ratioP2
64894;SDS011;51588;53.702;10.208;2022-12-07T00:01:06;6.97;;;5.17;;
64894;SDS011;51588;53.702;10.208;2022-12-07T00:03:34;7.67;;;5.47;;
64894;SDS011;51588;53.702;10.208;2022-12-07T00:06:00;6.30;;;4.90;;
64894;SDS011;51588;53.702;10.208;2022-12-07T00:08:27;5.90;;;4.97;;
64894;SDS011;51588;53.702;10.208;2022-12-07T00:10:54;6.50;;;4.80;;
64894;SDS011;51588;53.702;10.208;2022-12-07T00:13:22;6.47;;;4.70;;
64894;SDS011;51588;53.702;10.208;2022-12-07T00:15:48;5.90;;;4.40;;
64894;SDS011;51588;53.702;10.208;2022-12-07T00:18:15;5.67;;;4.70;;
64894;SDS011;51588;53.702;10.208;2022-12-07T00:21:00;6.67;;;4.90;;
64894;SDS011;51588;53.702;10.208;2022-12-07T00:23:27;5.57;;;4.33;;
64894;SDS011;51588;53.702;10.208;2022-12-07T00:25:54;7.60;;;5.27;;
64894;SDS011;51588;53.702;10.208;2022-12-07T00:28:21;5.47;;;4.63;;
64894;SDS011;51588;53.702;10.208;2022-12-07T00:30:48;6.80;;;4.70;;
64894;SDS011;51588;53.702;10.208;2022-12-07T00:33:14;8.00;;;4.87;;
64894;SDS011;51588;53.702;10.208;2022-12-07T00:35:41;6.13;;;4.70;;
64894;SDS011;51588;53.702;10.208;2022-12-07T00:38:07;6.20;;;4.60;;
64894;SDS011;51588;53.702;10.208;2022-12-07T00:40:56;5.90;;;4.50;;
64894;SDS011;51588;53.702;10.208;2022-12-07T00:43:24;7.27;;;5.10;;
64894;SDS011;51588;53.702;10.208;2022-12-07T00:45:50;6.03;;;4.50;;
64894;SDS011;51588;53.702;10.208;2022-12-07T00:48:17;6.10;;;4.00;;
64894;SDS011;51588;53.702;10.208;2022-12-07T00:50:43;5.97;;;4.40;;
64894;SDS011;51588;53.702;10.208;2022-12-07T00:53:09;6.20;;;4.50;;
64894;SDS011;51588;53.702;10.208;2022-12-07T00:55:36;6.63;;;4.37;;
64894;SDS011;51588;53.702;10.208;2022-12-07T00:58:03;7.43;;;4.73;;
64894;SDS011;51588;53.702;10.208;2022-12-07T01:00:31;7.00;;;4.23;;
64894;SDS011;51588;53.702;10.208;2022-12-07T01:02:57;5.67;;;4.43;;
64894;SDS011;51588;53.702;10.208;2022-12-07T01:05:24;4.63;;;4.00;;
64894;SDS011;51588;53.702;10.208;2022-12-07T01:07:50;4.63;;;4.13;;
64894;SDS011;51588;53.702;10.208;2022-12-07T01:10:17;6.13;;;4.30;;
64894;SDS011;51588;53.702;10.208;2022-12-07T01:12:43;5.20;;;4.00;;
64894;SDS011;51588;53.702;10.208;2022-12-07T01:15:10;6.07;;;4.40;;
64894;SDS011;51588;53.702;10.208;2022-12-07T01:17:38;6.60;;;4.43;;
64894;SDS011;51588;53.702;10.208;2022-12-07T01:20:05;6.53;;;3.83;;
64894;SDS011;51588;53.702;10.208;2022-12-07T01:22:32;5.43;;;4.30;;
64894;SDS011;51588;53.702;10.208;2022-12-07T01:25:02;4.47;;;3.80;;
64894;SDS011;51588;53.702;10.208;2022-12-07T01:27:28;8.27;;;5.30;;
64894;SDS011;51588;53.702;10.208;2022-12-07T01:29:58;5.47;;;3.87;;
64894;SDS011;51588;53.702;10.208;2022-12-07T01:32:24;5.30;;;3.90;;
64894;SDS011;51588;53.702;10.208;2022-12-07T01:34:52;6.97;;;4.47;;
64894;SDS011;51588;53.702;10.208;2022-12-07T01:37:18;5.07;;;4.00;;
64894;SDS011;51588;53.702;10.208;2022-12-07T01:39:47;5.70;;;4.37;;
64894;SDS011;51588;53.702;10.208;2022-12-07T01:42:14;5.20;;;3.90;;
64894;SDS011;51588;53.702;10.208;2022-12-07T01:47:22;5.67;;;3.77;;
64894;SDS011;51588;53.702;10.208;2022-12-07T01:49:48;3.97;;;3.30;;
64894;SDS011;51588;53.702;10.208;2022-12-07T01:52:17;5.63;;;4.10;;
64894;SDS011;51588;53.702;10.208;2022-12-07T01:54:44;6.37;;;4.07;;
64894;SDS011;51588;53.702;10.208;2022-12-07T01:57:12;6.20;;;4.00;;
64894;SDS011;51588;53.702;10.208;2022-12-07T01:59:39;4.10;;;3.70;;
64894;SDS011;51588;53.702;10.208;2022-12-07T02:02:07;4.93;;;3.60;;
64894;SDS011;51588;53.702;10.208;2022-12-07T02:04:36;3.63;;;3.30;;
64894;SDS011;51588;53.702;10.208;2022-12-07T02:07:02;4.70;;;3.83;;
64894;SDS011;51588;53.702;10.208;2022-12-07T02:09:49;4.17;;;3.60;;
64894;SDS011;51588;53.702;10.208;2022-12-07T02:12:15;5.00;;;3.30;;
64894;SDS011;51588;53.702;10.208;2022-12-07T02:15:01;6.17;;;3.57;;
64894;SDS011;51588;53.702;10.208;2022-12-07T02:17:28;3.77;;;3.40;;
64894;SDS011;51588;53.702;10.208;2022-12-07T02:20:17;3.53;;;2.90;;
64894;SDS011;51588;53.702;10.208;2022-12-07T02:22:50;3.80;;;3.40;;
64894;SDS011;51588;53.702;10.208;2022-12-07T02:25:21;4.87;;;2.80;;
64894;SDS011;51588;53.702;10.208;2022-12-07T02:27:50;3.67;;;3.10;;
64894;SDS011;51588;53.702;10.208;2022-12-07T02:30:20;3.20;;;2.80;;
64894;SDS011;51588;53.702;10.208;2022-12-07T02:32:48;3.70;;;3.27;;
64894;SDS011;51588;53.702;10.208;2022-12-07T02:35:18;3.17;;;2.87;;
64894;SDS011;51588;53.702;10.208;2022-12-07T02:37:48;4.13;;;3.23;;
64894;SDS011;51588;53.702;10.208;2022-12-07T02:40:17;3.07;;;2.77;;
64894;SDS011;51588;53.702;10.208;2022-12-07T02:42:45;3.73;;;2.83;;
64894;SDS011;51588;53.702;10.208;2022-12-07T02:45:13;2.80;;;2.50;;
64894;SDS011;51588;53.702;10.208;2022-12-07T02:47:42;3.70;;;3.00;;
64894;SDS011;51588;53.702;10.208;2022-12-07T02:50:09;2.93;;;2.63;;
64894;SDS011;51588;53.702;10.208;2022-12-07T02:52:36;4.00;;;2.87;;
64894;SDS011;51588;53.702;10.208;2022-12-07T02:55:03;3.80;;;3.07;;
64894;SDS011;51588;53.702;10.208;2022-12-07T02:57:38;2.70;;;2.40;;
64894;SDS011;51588;53.702;10.208;2022-12-07T03:00:07;3.13;;;2.60;;
64894;SDS011;51588;53.702;10.208;2022-12-07T03:02:36;3.87;;;3.50;;
64894;SDS011;51588;53.702;10.208;2022-12-07T03:05:08;3.80;;;2.90;;
64894;SDS011;51588;53.702;10.208;2022-12-07T03:07:38;4.27;;;2.80;;
64894;SDS011;51588;53.702;10.208;2022-12-07T03:10:07;3.13;;;2.83;;
64894;SDS011;51588;53.702;10.208;2022-12-07T03:12:37;3.97;;;3.13;;
64894;SDS011;51588;53.702;10.208;2022-12-07T03:15:07;3.50;;;2.77;;
64894;SDS011;51588;53.702;10.208;2022-12-07T03:17:37;2.60;;;2.40;;
64894;SDS011;51588;53.702;10.208;2022-12-07T03:20:04;3.30;;;2.70;;
64894;SDS011;51588;53.702;10.208;2022-12-07T03:22:34;3.37;;;2.73;;
64894;SDS011;51588;53.702;10.208;2022-12-07T03:25:03;3.20;;;2.57;;
64894;SDS011;51588;53.702;10.208;2022-12-07T03:27:31;3.10;;;2.50;;
64894;SDS011;51588;53.702;10.208;2022-12-07T03:29:59;3.07;;;2.67;;
64894;SDS011;51588;53.702;10.208;2022-12-07T03:32:27;3.10;;;2.63;;
64894;SDS011;51588;53.702;10.208;2022-12-07T03:34:57;2.60;;;2.40;;
64894;SDS011;51588;53.702;10.208;2022-12-07T03:37:26;2.87;;;2.57;;
64894;SDS011;51588;53.702;10.208;2022-12-07T03:39:58;3.17;;;2.50;;
64894;SDS011;51588;53.702;10.208;2022-12-07T03:42:28;2.47;;;2.27;;
64894;SDS011;51588;53.702;10.208;2022-12-07T03:44:54;2.50;;;2.30;;
64894;SDS011;51588;53.702;10.208;2022-12-07T03:47:22;3.13;;;2.47;;
64894;SDS011;51588;53.702;10.208;2022-12-07T03:49:58;2.40;;;2.20;;
64894;SDS011;51588;53.702;10.208;2022-12-07T03:52:26;2.50;;;2.17;;
64894;SDS011;51588;53.702;10.208;2022-12-07T03:54:55;2.40;;;2.20;;
64894;SDS011;51588;53.702;10.208;2022-12-07T03:57:25;2.57;;;2.20;;
64894;SDS011;51588;53.702;10.208;2022-12-07T03:59:55;2.57;;;2.37;;
64894;SDS011;51588;53.702;10.208;2022-12-07T04:02:21;3.13;;;2.20;;
64894;SDS011;51588;53.702;10.208;2022-12-07T04:04:49;2.10;;;1.87;;
64894;SDS011;51588;53.702;10.208;2022-12-07T04:07:15;3.03;;;2.20;;
64894;SDS011;51588;53.702;10.208;2022-12-07T04:10:00;2.73;;;2.10;;
64894;SDS011;51588;53.702;10.208;2022-12-07T04:12:28;2.30;;;2.10;;
64894;SDS011;51588;53.702;10.208;2022-12-07T04:14:54;2.30;;;2.10;;
64894;SDS011;51588;53.702;10.208;2022-12-07T04:17:21;2.00;;;1.80;;
64894;SDS011;51588;53.702;10.208;2022-12-07T04:19:47;2.73;;;1.77;;
64894;SDS011;51588;53.702;10.208;2022-12-07T04:22:14;2.43;;;2.23;;
64894;SDS011;51588;53.702;10.208;2022-12-07T04:24:40;2.60;;;2.30;;
64894;SDS011;51588;53.702;10.208;2022-12-07T04:27:06;1.90;;;1.70;;
64894;SDS011;51588;53.702;10.208;2022-12-07T04:29:53;2.03;;;1.80;;
64894;SDS011;51588;53.702;10.208;2022-12-07T04:32:20;3.30;;;1.80;;
64894;SDS011;51588;53.702;10.208;2022-12-07T04:34:47;2.27;;;1.80;;
64894;SDS011;51588;53.702;10.208;2022-12-07T04:37:13;1.90;;;1.80;;
64894;SDS011;51588;53.702;10.208;2022-12-07T04:39:58;3.10;;;1.80;;
64894;SDS011;51588;53.702;10.208;2022-12-07T04:42:24;2.67;;;1.70;;
64894;SDS011;51588;53.702;10.208;2022-12-07T04:45:11;1.50;;;1.40;;
64894;SDS011;51588;53.702;10.208;2022-12-07T04:47:37;2.13;;;1.77;;
64894;SDS011;51588;53.702;10.208;2022-12-07T04:50:04;2.10;;;1.70;;
64894;SDS011;51588;53.702;10.208;2022-12-07T04:52:31;2.20;;;1.80;;
64894;SDS011;51588;53.702;10.208;2022-12-07T04:54:57;1.67;;;1.50;;
64894;SDS011;51588;53.702;10.208;2022-12-07T04:57:23;1.63;;;1.50;;
64894;SDS011;51588;53.702;10.208;2022-12-07T04:59:50;1.93;;;1.77;;
64894;SDS011;51588;53.702;10.208;2022-12-07T05:02:18;1.73;;;1.57;;
64894;SDS011;51588;53.702;10.208;2022-12-07T05:04:44;1.73;;;1.63;;
64894;SDS011;51588;53.702;10.208;2022-12-07T05:07:10;1.57;;;1.47;;
64894;SDS011;51588;53.702;10.208;2022-12-07T05:09:37;1.90;;;1.63;;
64894;SDS011;51588;53.702;10.208;2022-12-07T05:12:03;1.73;;;1.63;;
64894;SDS011;51588;53.702;10.208;2022-12-07T05:14:29;2.27;;;1.70;;
64894;SDS011;51588;53.702;10.208;2022-12-07T05:16:56;1.77;;;1.67;;
64894;SDS011;51588;53.702;10.208;2022-12-07T05:19:24;1.57;;;1.40;;
64894;SDS011;51588;53.702;10.208;2022-12-07T05:21:51;2.60;;;1.70;;
64894;SDS011;51588;53.702;10.208;2022-12-07T05:24:17;2.17;;;1.70;;
64894;SDS011;51588;53.702;10.208;2022-12-07T05:26:44;1.57;;;1.47;;
64894;SDS011;51588;53.702;10.208;2022-12-07T05:29:11;1.70;;;1.60;;
64894;SDS011;51588;53.702;10.208;2022-12-07T05:31:38;2.10;;;1.53;;
64894;SDS011;51588;53.702;10.208;2022-12-07T05:34:04;1.57;;;1.40;;
64894;SDS011;51588;53.702;10.208;2022-12-07T05:36:32;1.60;;;1.40;;
64894;SDS011;51588;53.702;10.208;2022-12-07T05:38:58;1.43;;;1.33;;
64894;SDS011;51588;53.702;10.208;2022-12-07T05:41:25;1.50;;;1.37;;
64894;SDS011;51588;53.702;10.208;2022-12-07T05:44:36;1.97;;;1.50;;
64894;SDS011;51588;53.702;10.208;2022-12-07T05:47:02;1.70;;;1.60;;
64894;SDS011;51588;53.702;10.208;2022-12-07T05:49:29;2.07;;;1.40;;
64894;SDS011;51588;53.702;10.208;2022-12-07T05:51:57;1.50;;;1.30;;
64894;SDS011;51588;53.702;10.208;2022-12-07T05:54:23;1.90;;;1.60;;
64894;SDS011;51588;53.702;10.208;2022-12-07T05:56:50;2.13;;;1.57;;
64894;SDS011;51588;53.702;10.208;2022-12-07T05:59:16;1.40;;;1.30;;
64894;SDS011;51588;53.702;10.208;2022-12-07T06:01:48;1.47;;;1.30;;
64894;SDS011;51588;53.702;10.208;2022-12-07T06:04:15;1.90;;;1.50;;
64894;SDS011;51588;53.702;10.208;2022-12-07T06:06:42;1.60;;;1.40;;
64894;SDS011;51588;53.702;10.208;2022-12-07T06:09:09;1.50;;;1.27;;
64894;SDS011;51588;53.702;10.208;2022-12-07T06:11:36;1.70;;;1.40;;
64894;SDS011;51588;53.702;10.208;2022-12-07T06:14:20;1.53;;;1.40;;
64894;SDS011;51588;53.702;10.208;2022-12-07T06:16:46;2.27;;;1.70;;
64894;SDS011;51588;53.702;10.208;2022-12-07T06:19:13;2.13;;;1.60;;
64894;SDS011;51588;53.702;10.208;2022-12-07T06:21:39;1.93;;;1.67;;
64894;SDS011;51588;53.702;10.208;2022-12-07T06:24:06;1.93;;;1.60;;
64894;SDS011;51588;53.702;10.208;2022-12-07T06:26:34;3.53;;;1.50;;
64894;SDS011;51588;53.702;10.208;2022-12-07T06:29:00;1.60;;;1.40;;
64894;SDS011;51588;53.702;10.208;2022-12-07T06:31:26;4.50;;;1.40;;
64894;SDS011;51588;53.702;10.208;2022-12-07T06:33:56;2.30;;;1.63;;
64894;SDS011;51588;53.702;10.208;2022-12-07T06:36:23;1.50;;;1.33;;
64894;SDS011;51588;53.702;10.208;2022-12-07T06:38:49;1.70;;;1.60;;
64894;SDS011;51588;53.702;10.208;2022-12-07T06:41:15;1.40;;;1.30;;
64894;SDS011;51588;53.702;10.208;2022-12-07T06:43:43;2.17;;;1.63;;
64894;SDS011;51588;53.702;10.208;2022-12-07T06:46:09;1.93;;;1.40;;
64894;SDS011;51588;53.702;10.208;2022-12-07T06:48:55;2.00;;;1.60;;
64894;SDS011;51588;53.702;10.208;2022-12-07T06:51:21;1.40;;;1.30;;
64894;SDS011;51588;53.702;10.208;2022-12-07T06:53:48;1.50;;;1.40;;
64894;SDS011;51588;53.702;10.208;2022-12-07T06:56:14;2.00;;;1.20;;
64894;SDS011;51588;53.702;10.208;2022-12-07T06:58:41;2.00;;;1.43;;
64894;SDS011;51588;53.702;10.208;2022-12-07T07:01:10;1.40;;;1.30;;
64894;SDS011;51588;53.702;10.208;2022-12-07T07:03:36;1.50;;;1.23;;
64894;SDS011;51588;53.702;10.208;2022-12-07T07:06:03;1.40;;;1.30;;
64894;SDS011;51588;53.702;10.208;2022-12-07T07:08:29;2.13;;;1.30;;
64894;SDS011;51588;53.702;10.208;2022-12-07T07:10:56;1.40;;;1.30;;
64894;SDS011;51588;53.702;10.208;2022-12-07T07:13:22;1.57;;;1.47;;
64894;SDS011;51588;53.702;10.208;2022-12-07T07:16:07;2.50;;;1.50;;
64894;SDS011;51588;53.702;10.208;2022-12-07T07:18:35;2.27;;;1.20;;
64894;SDS011;51588;53.702;10.208;2022-12-07T07:21:02;4.60;;;1.50;;
64894;SDS011;51588;53.702;10.208;2022-12-07T07:23:28;1.20;;;1.10;;
64894;SDS011;51588;53.702;10.208;2022-12-07T07:25:55;1.40;;;1.30;;
64894;SDS011;51588;53.702;10.208;2022-12-07T07:28:21;4.30;;;1.50;;
64894;SDS011;51588;53.702;10.208;2022-12-07T07:31:06;1.40;;;1.30;;
64894;SDS011;51588;53.702;10.208;2022-12-07T07:33:32;5.40;;;1.40;;
64894;SDS011;51588;53.702;10.208;2022-12-07T07:36:00;1.30;;;1.20;;
64894;SDS011;51588;53.702;10.208;2022-12-07T07:38:27;1.47;;;1.37;;
64894;SDS011;51588;53.702;10.208;2022-12-07T07:40:53;2.37;;;1.30;;
64894;SDS011;51588;53.702;10.208;2022-12-07T07:43:19;1.73;;;1.43;;
64894;SDS011;51588;53.702;10.208;2022-12-07T07:45:46;1.40;;;1.30;;
64894;SDS011;51588;53.702;10.208;2022-12-07T07:48:12;1.90;;;1.50;;
64894;SDS011;51588;53.702;10.208;2022-12-07T07:50:57;2.17;;;1.63;;
64894;SDS011;51588;53.702;10.208;2022-12-07T07:53:25;29.10;;;12.10;;
64894;SDS011;51588;53.702;10.208;2022-12-07T07:56:10;44.77;;;16.30;;
64894;SDS011;51588;53.702;10.208;2022-12-07T07:58:36;60.00;;;20.47;;
64894;SDS011;51588;53.702;10.208;2022-12-07T08:01:04;61.67;;;21.77;;
64894;SDS011;51588;53.702;10.208;2022-12-07T08:03:30;62.30;;;23.00;;
64894;SDS011;51588;53.702;10.208;2022-12-07T08:06:15;64.00;;;25.67;;
64894;SDS011;51588;53.702;10.208;2022-12-07T08:08:43;62.47;;;25.47;;
64894;SDS011;51588;53.702;10.208;2022-12-07T08:11:09;69.63;;;25.00;;
64894;SDS011;51588;53.702;10.208;2022-12-07T08:13:36;60.57;;;24.17;;
64894;SDS011;51588;53.702;10.208;2022-12-07T08:16:03;55.90;;;23.80;;
64894;SDS011;51588;53.702;10.208;2022-12-07T08:18:30;68.07;;;24.20;;
64894;SDS011;51588;53.702;10.208;2022-12-07T08:20:58;65.80;;;24.83;;
64894;SDS011;51588;53.702;10.208;2022-12-07T08:23:25;63.33;;;22.77;;
64894;SDS011;51588;53.702;10.208;2022-12-07T08:26:00;61.53;;;23.30;;
64894;SDS011;51588;53.702;10.208;2022-12-07T08:28:27;55.80;;;23.30;;
64894;SDS011;51588;53.702;10.208;2022-12-07T08:31:13;53.90;;;22.40;;
64894;SDS011;51588;53.702;10.208;2022-12-07T08:33:40;55.60;;;20.67;;
64894;SDS011;51588;53.702;10.208;2022-12-07T08:36:07;42.77;;;19.90;;
64894;SDS011;51588;53.702;10.208;2022-12-07T08:38:34;48.83;;;20.47;;
64894;SDS011;51588;53.702;10.208;2022-12-07T08:41:02;52.17;;;20.17;;
64894;SDS011;51588;53.702;10.208;2022-12-07T08:43:28;44.60;;;18.80;;
64894;SDS011;51588;53.702;10.208;2022-12-07T08:46:16;45.23;;;19.90;;
64894;SDS011;51588;53.702;10.208;2022-12-07T08:48:44;39.33;;;17.77;;
64894;SDS011;51588;53.702;10.208;2022-12-07T08:51:12;46.53;;;18.93;;
64894;SDS011;51588;53.702;10.208;2022-12-07T08:53:38;44.77;;;17.97;;
64894;SDS011;51588;53.702;10.208;2022-12-07T08:56:07;38.50;;;17.10;;
64894;SDS011;51588;53.702;10.208;2022-12-07T08:58:34;39.30;;;17.63;;
64894;SDS011;51588;53.702;10.208;2022-12-07T09:01:01;37.97;;;17.23;;
64894;SDS011;51588;53.702;10.208;2022-12-07T09:03:28;38.03;;;16.93;;
64894;SDS011;51588;53.702;10.208;2022-12-07T09:06:13;37.13;;;14.70;;
64894;SDS011;51588;53.702;10.208;2022-12-07T09:08:40;35.10;;;15.00;;
64894;SDS011;51588;53.702;10.208;2022-12-07T09:11:09;32.90;;;13.97;;
64894;SDS011;51588;53.702;10.208;2022-12-07T09:13:35;36.30;;;14.87;;
64894;SDS011;51588;53.702;10.208;2022-12-07T09:16:02;31.07;;;14.77;;
64894;SDS011;51588;53.702;10.208;2022-12-07T09:18:28;34.47;;;14.73;;
64894;SDS011;51588;53.702;10.208;2022-12-07T09:20:55;30.23;;;14.77;;
64894;SDS011;51588;53.702;10.208;2022-12-07T09:23:22;34.10;;;13.83;;
64894;SDS011;51588;53.702;10.208;2022-12-07T09:26:08;31.23;;;14.57;;
64894;SDS011;51588;53.702;10.208;2022-12-07T09:28:35;27.90;;;13.20;;
64894;SDS011;51588;53.702;10.208;2022-12-07T09:31:02;29.23;;;13.07;;
64894;SDS011;51588;53.702;10.208;2022-12-07T09:33:28;28.07;;;12.20;;
64894;SDS011;51588;53.702;10.208;2022-12-07T09:35:55;26.30;;;12.00;;
64894;SDS011;51588;53.702;10.208;2022-12-07T09:38:21;24.90;;;11.67;;
64894;SDS011;51588;53.702;10.208;2022-12-07T09:40:49;27.80;;;12.57;;
64894;SDS011;51588;53.702;10.208;2022-12-07T09:43:18;21.97;;;11.23;;
64894;SDS011;51588;53.702;10.208;2022-12-07T09:45:45;21.73;;;10.33;;
64894;SDS011;51588;53.702;10.208;2022-12-07T09:48:14;22.70;;;11.03;;
64894;SDS011;51588;53.702;10.208;2022-12-07T09:51:01;22.13;;;10.50;;
64894;SDS011;51588;53.702;10.208;2022-12-07T09:53:29;21.40;;;10.23;;
64894;SDS011;51588;53.702;10.208;2022-12-07T09:55:56;23.37;;;10.33;;
64894;SDS011;51588;53.702;10.208;2022-12-07T09:58:25;23.87;;;10.20;;
64894;SDS011;51588;53.702;10.208;2022-12-07T10:00:52;22.53;;;10.23;;
64894;SDS011;51588;53.702;10.208;2022-12-07T10:03:19;22.43;;;9.80;;
64894;SDS011;51588;53.702;10.208;2022-12-07T10:06:05;18.73;;;9.83;;
64894;SDS011;51588;53.702;10.208;2022-12-07T10:08:32;24.77;;;9.33;;
64894;SDS011;51588;53.702;10.208;2022-12-07T10:11:17;27.10;;;8.60;;
64894;SDS011;51588;53.702;10.208;2022-12-07T10:13:45;15.40;;;8.07;;
64894;SDS011;51588;53.702;10.208;2022-12-07T10:16:27;17.77;;;7.67;;
64894;SDS011;51588;53.702;10.208;2022-12-07T10:19:20;17.43;;;8.37;;
64894;SDS011;51588;53.702;10.208;2022-12-07T10:22:01;16.83;;;7.77;;
64894;SDS011;51588;53.702;10.208;2022-12-07T10:24:28;21.80;;;7.90;;
64894;SDS011;51588;53.702;10.208;2022-12-07T10:26:55;19.73;;;8.40;;
64894;SDS011;51588;53.702;10.208;2022-12-07T10:29:23;17.53;;;7.33;;
64894;SDS011;51588;53.702;10.208;2022-12-07T10:31:51;20.73;;;8.17;;
64894;SDS011;51588;53.702;10.208;2022-12-07T10:34:20;17.07;;;7.33;;
64894;SDS011;51588;53.702;10.208;2022-12-07T10:36:49;16.10;;;8.10;;
64894;SDS011;51588;53.702;10.208;2022-12-07T10:39:16;16.80;;;7.60;;
64894;SDS011;51588;53.702;10.208;2022-12-07T10:41:53;13.77;;;6.63;;
64894;SDS011;51588;53.702;10.208;2022-12-07T10:44:21;12.60;;;6.77;;
64894;SDS011;51588;53.702;10.208;2022-12-07T10:46:55;12.47;;;6.50;;
64894;SDS011;51588;53.702;10.208;2022-12-07T10:49:33;11.73;;;6.50;;
64894;SDS011;51588;53.702;10.208;2022-12-07T10:52:04;14.27;;;6.63;;
64894;SDS011;51588;53.702;10.208;2022-12-07T10:54:37;13.17;;;5.93;;
64894;SDS011;51588;53.702;10.208;2022-12-07T10:57:12;14.80;;;6.20;;
64894;SDS011;51588;53.702;10.208;2022-12-07T11:00:04;10.97;;;6.03;;
64894;SDS011;51588;53.702;10.208;2022-12-07T11:02:50;15.57;;;6.07;;
64894;SDS011;51588;53.702;10.208;2022-12-07T11:05:23;11.90;;;5.60;;
64894;SDS011;51588;53.702;10.208;2022-12-07T11:07:55;10.20;;;5.60;;
64894;SDS011;51588;53.702;10.208;2022-12-07T11:10:26;7.60;;;4.73;;
64894;SDS011;51588;53.702;10.208;2022-12-07T11:12:58;10.30;;;5.50;;
64894;SDS011;51588;53.702;10.208;2022-12-07T11:15:28;10.10;;;5.20;;
64894;SDS011;51588;53.702;10.208;2022-12-07T11:18:01;11.10;;;5.50;;
64894;SDS011;51588;53.702;10.208;2022-12-07T11:20:34;12.30;;;7.67;;
64894;SDS011;51588;53.702;10.208;2022-12-07T11:23:03;14.70;;;7.50;;
64894;SDS011;51588;53.702;10.208;2022-12-07T11:25:37;11.03;;;6.43;;
64894;SDS011;51588;53.702;10.208;2022-12-07T11:28:10;13.70;;;6.43;;
64894;SDS011;51588;53.702;10.208;2022-12-07T11:30:38;10.97;;;6.87;;
64894;SDS011;51588;53.702;10.208;2022-12-07T11:33:11;10.30;;;6.13;;
64894;SDS011;51588;53.702;10.208;2022-12-07T11:35:45;10.20;;;5.83;;
64894;SDS011;51588;53.702;10.208;2022-12-07T11:38:12;8.00;;;5.40;;
64894;SDS011;51588;53.702;10.208;2022-12-07T11:40:40;11.17;;;5.23;;
64894;SDS011;51588;53.702;10.208;2022-12-07T11:43:12;10.53;;;5.23;;
64894;SDS011;51588;53.702;10.208;2022-12-07T11:45:41;22.20;;;12.40;;
64894;SDS011;51588;53.702;10.208;2022-12-07T11:48:10;79.93;;;39.27;;
64894;SDS011;51588;53.702;10.208;2022-12-07T11:50:40;80.83;;;39.33;;
64894;SDS011;51588;53.702;10.208;2022-12-07T11:53:10;74.27;;;39.73;;
64894;SDS011;51588;53.702;10.208;2022-12-07T11:55:40;75.07;;;36.40;;
64894;SDS011;51588;53.702;10.208;2022-12-07T11:58:11;72.43;;;35.80;;
64894;SDS011;51588;53.702;10.208;2022-12-07T12:00:39;60.33;;;29.87;;
64894;SDS011;51588;53.702;10.208;2022-12-07T12:03:09;54.30;;;28.47;;
64894;SDS011;51588;53.702;10.208;2022-12-07T12:05:36;46.60;;;26.00;;
64894;SDS011;51588;53.702;10.208;2022-12-07T12:08:11;50.03;;;24.40;;
64894;SDS011;51588;53.702;10.208;2022-12-07T12:10:42;41.57;;;22.50;;
64894;SDS011;51588;53.702;10.208;2022-12-07T12:13:15;45.93;;;20.93;;
64894;SDS011;51588;53.702;10.208;2022-12-07T12:16:06;38.90;;;19.73;;
64894;SDS011;51588;53.702;10.208;2022-12-07T12:18:41;35.83;;;19.00;;
64894;SDS011;51588;53.702;10.208;2022-12-07T12:21:12;35.67;;;19.17;;
64894;SDS011;51588;53.702;10.208;2022-12-07T12:23:42;33.63;;;17.33;;
64894;SDS011;51588;53.702;10.208;2022-12-07T12:26:13;32.47;;;16.80;;
64894;SDS011;51588;53.702;10.208;2022-12-07T12:28:41;30.33;;;15.27;;
64894;SDS011;51588;53.702;10.208;2022-12-07T12:31:12;27.40;;;14.63;;
64894;SDS011;51588;53.702;10.208;2022-12-07T12:33:42;29.73;;;14.20;;
64894;SDS011;51588;53.702;10.208;2022-12-07T12:36:20;22.73;;;12.70;;
64894;SDS011;51588;53.702;10.208;2022-12-07T12:39:11;24.57;;;12.37;;
64894;SDS011;51588;53.702;10.208;2022-12-07T12:41:58;25.07;;;12.03;;
64894;SDS011;51588;53.702;10.208;2022-12-07T12:47:40;21.43;;;10.27;;
64894;SDS011;51588;53.702;10.208;2022-12-07T12:50:30;20.70;;;9.40;;
64894;SDS011;51588;53.702;10.208;2022-12-07T12:52:58;17.23;;;9.20;;
64894;SDS011;51588;53.702;10.208;2022-12-07T12:58:35;17.20;;;9.17;;
64894;SDS011;51588;53.702;10.208;2022-12-07T13:03:55;17.10;;;8.70;;
64894;SDS011;51588;53.702;10.208;2022-12-07T13:06:31;19.20;;;8.40;;
64894;SDS011;51588;53.702;10.208;2022-12-07T13:09:00;20.10;;;8.40;;
64894;SDS011;51588;53.702;10.208;2022-12-07T13:11:28;16.23;;;7.70;;
64894;SDS011;51588;53.702;10.208;2022-12-07T13:16:41;15.57;;;7.70;;
64894;SDS011;51588;53.702;10.208;2022-12-07T13:22:39;13.20;;;6.70;;
64894;SDS011;51588;53.702;10.208;2022-12-07T13:28:10;13.40;;;6.10;;
64894;SDS011;51588;53.702;10.208;2022-12-07T13:30:45;12.70;;;6.10;;
64894;SDS011;51588;53.702;10.208;2022-12-07T13:33:13;14.93;;;6.87;;
64894;SDS011;51588;53.702;10.208;2022-12-07T13:35:40;17.07;;;7.70;;
64894;SDS011;51588;53.702;10.208;2022-12-07T13:38:15;16.20;;;7.70;;
64894;SDS011;51588;53.702;10.208;2022-12-07T13:40:58;17.17;;;8.77;;
64894;SDS011;51588;53.702;10.208;2022-12-07T13:43:25;21.43;;;10.07;;
64894;SDS011;51588;53.702;10.208;2022-12-07T13:45:55;27.30;;;12.87;;
64894;SDS011;51588;53.702;10.208;2022-12-07T13:48:24;31.60;;;13.30;;
64894;SDS011;51588;53.702;10.208;2022-12-07T13:50:54;37.33;;;14.87;;
64894;SDS011;51588;53.702;10.208;2022-12-07T13:53:21;34.93;;;15.60;;
64894;SDS011;51588;53.702;10.208;2022-12-07T13:55:47;38.60;;;15.70;;
64894;SDS011;51588;53.702;10.208;2022-12-07T13:58:14;40.23;;;17.33;;
64894;SDS011;51588;53.702;10.208;2022-12-07T14:00:40;42.37;;;17.60;;
64894;SDS011;51588;53.702;10.208;2022-12-07T14:03:23;43.20;;;18.40;;
64894;SDS011;51588;53.702;10.208;2022-12-07T14:06:04;52.10;;;20.77;;
64894;SDS011;51588;53.702;10.208;2022-12-07T14:08:31;43.90;;;20.00;;
64894;SDS011;51588;53.702;10.208;2022-12-07T14:11:17;55.03;;;21.87;;
64894;SDS011;51588;53.702;10.208;2022-12-07T14:13:56;45.20;;;21.50;;
64894;SDS011;51588;53.702;10.208;2022-12-07T14:16:25;51.43;;;21.93;;
64894;SDS011;51588;53.702;10.208;2022-12-07T14:22:06;50.23;;;22.57;;
64894;SDS011;51588;53.702;10.208;2022-12-07T14:24:40;44.17;;;19.50;;
64894;SDS011;51588;53.702;10.208;2022-12-07T14:27:15;48.13;;;18.90;;
64894;SDS011;51588;53.702;10.208;2022-12-07T14:29:42;38.10;;;18.73;;
64894;SDS011;51588;53.702;10.208;2022-12-07T14:32:15;39.40;;;18.40;;
64894;SDS011;51588;53.702;10.208;2022-12-07T14:34:52;43.83;;;18.30;;
64894;SDS011;51588;53.702;10.208;2022-12-07T14:37:20;41.77;;;19.50;;
64894;SDS011;51588;53.702;10.208;2022-12-07T14:40:05;37.20;;;17.03;;
64894;SDS011;51588;53.702;10.208;2022-12-07T14:42:32;43.03;;;18.17;;
64894;SDS011;51588;53.702;10.208;2022-12-07T14:45:18;40.23;;;18.33;;
64894;SDS011;51588;53.702;10.208;2022-12-07T14:47:45;44.67;;;17.90;;
64894;SDS011;51588;53.702;10.208;2022-12-07T14:50:12;44.53;;;18.57;;
64894;SDS011;51588;53.702;10.208;2022-12-07T14:52:41;43.80;;;19.63;;
64894;SDS011;51588;53.702;10.208;2022-12-07T14:55:14;36.80;;;16.47;;
64894;SDS011;51588;53.702;10.208;2022-12-07T14:57:42;39.40;;;16.83;;
64894;SDS011;51588;53.702;10.208;2022-12-07T15:00:10;37.70;;;16.60;;
64894;SDS011;51588;53.702;10.208;2022-12-07T15:02:39;36.33;;;17.00;;
64894;SDS011;51588;53.702;10.208;2022-12-07T15:05:24;38.20;;;16.83;;